createdAt,value
2022-10-22T00:00:17.923Z,17
2022-10-22T00:01:17.956Z,17
2022-10-22T00:02:18.043Z,17
2022-10-22T00:03:18.020Z,17
2022-10-22T00:04:18.047Z,17
2022-10-22T00:05:18.072Z,16.9286
2022-10-22T00:06:18.107Z,16.9286
2022-10-22T00:07:18.140Z,16.9286
2022-10-22T00:08:18.179Z,16.9286
2022-10-22T00:09:18.314Z,16.8571
2022-10-22T00:10:18.238Z,16.8571
2022-10-22T00:11:18.272Z,16.8571
2022-10-22T00:12:18.296Z,16.8571
2022-10-22T00:13:18.337Z,16.7857
2022-10-22T00:14:18.368Z,16.7857
2022-10-22T00:15:18.411Z,16.7857
2022-10-22T00:16:18.449Z,16.7143
2022-10-22T00:17:18.477Z,16.7143
2022-10-22T00:18:18.515Z,16.6429
2022-10-22T00:19:18.547Z,16.6429
2022-10-22T00:20:18.582Z,16.5714
2022-10-22T00:21:18.623Z,16.5714
2022-10-22T00:22:18.666Z,16.5714
2022-10-22T00:23:18.691Z,16.5
2022-10-22T00:24:18.733Z,16.5
2022-10-22T00:25:18.778Z,16.4286
2022-10-22T00:26:18.815Z,16.4286
2022-10-22T00:27:18.849Z,16.4286
2022-10-22T00:28:18.886Z,16.4286
2022-10-22T00:29:18.911Z,16.3571
2022-10-22T00:30:18.959Z,16.3571
2022-10-22T00:31:18.997Z,16.3571
2022-10-22T00:32:19.037Z,16.3571
2022-10-22T00:33:19.071Z,16.3571
2022-10-22T00:34:19.106Z,16.2857
2022-10-22T00:35:19.144Z,16.2857
2022-10-22T00:36:19.175Z,16.2857
2022-10-22T00:37:19.216Z,16.2857
2022-10-22T00:38:19.241Z,16.2857
2022-10-22T00:39:19.290Z,16.2143
2022-10-22T00:40:19.318Z,16.2143
2022-10-22T00:41:19.353Z,16.2143
2022-10-22T00:42:19.390Z,16.2143
2022-10-22T00:43:19.429Z,16.2143
2022-10-22T00:44:19.459Z,16.1429
2022-10-22T00:45:19.486Z,16.1429
2022-10-22T00:46:19.515Z,16.1429
2022-10-22T00:47:19.551Z,16.1429
2022-10-22T00:48:19.598Z,16.0714
2022-10-22T00:49:19.621Z,16.0714
2022-10-22T00:50:19.651Z,16
2022-10-22T00:51:19.694Z,16
2022-10-22T00:52:19.733Z,16
2022-10-22T00:53:19.772Z,16
2022-10-22T00:54:19.810Z,16
2022-10-22T00:55:19.852Z,15.9286
2022-10-22T00:56:19.886Z,15.9286
2022-10-22T00:57:19.917Z,15.9286
2022-10-22T00:58:19.949Z,15.9286
2022-10-22T00:59:19.990Z,15.9286
2022-10-22T01:00:20.033Z,15.9286
2022-10-22T01:01:20.199Z,15.9286
2022-10-22T01:02:20.099Z,15.8571
2022-10-22T01:03:20.141Z,15.9286
2022-10-22T01:04:20.177Z,15.8571
2022-10-22T01:05:20.225Z,15.8571
2022-10-22T01:06:20.262Z,15.8571
2022-10-22T01:07:20.300Z,15.8571
2022-10-22T01:08:20.345Z,15.8571
2022-10-22T01:09:20.363Z,15.8571
2022-10-22T01:10:20.396Z,15.8571
2022-10-22T01:11:20.419Z,15.8571
2022-10-22T01:12:20.475Z,15.8571
2022-10-22T01:13:20.481Z,15.8571
2022-10-22T01:14:20.515Z,15.8571
2022-10-22T01:15:20.538Z,15.8571
2022-10-22T01:16:20.578Z,15.8571
2022-10-22T01:18:20.655Z,15.8571
2022-10-22T01:19:20.681Z,15.9286
2022-10-22T01:20:20.716Z,15.9286
2022-10-22T01:21:20.754Z,15.9286
2022-10-22T01:22:20.800Z,15.9286
2022-10-22T01:23:20.829Z,15.9286
2022-10-22T01:24:20.861Z,15.9286
2022-10-22T01:25:20.897Z,15.9286
2022-10-22T01:26:21.069Z,15.9286
2022-10-22T01:27:20.977Z,15.9286
2022-10-22T01:28:21.018Z,15.9286
2022-10-22T01:29:21.057Z,15.9286
2022-10-22T01:30:21.106Z,15.9286
2022-10-22T01:31:21.143Z,15.9286
2022-10-22T01:32:21.171Z,15.9286
2022-10-22T01:33:21.216Z,15.9286
2022-10-22T01:34:21.266Z,15.9286
2022-10-22T01:35:21.330Z,15.9286
2022-10-22T01:36:21.316Z,15.8571
2022-10-22T01:37:21.352Z,15.8571
2022-10-22T01:38:21.400Z,15.9286
2022-10-22T01:39:21.435Z,15.8571
2022-10-22T01:40:21.463Z,15.8571
2022-10-22T01:41:21.502Z,15.8571
2022-10-22T01:42:21.546Z,15.8571
2022-10-22T01:43:21.577Z,15.8571
2022-10-22T01:44:21.648Z,15.8571
2022-10-22T01:45:21.647Z,15.8571
2022-10-22T01:46:21.685Z,15.8571
2022-10-22T01:47:21.732Z,15.8571
2022-10-22T01:48:21.753Z,15.8571
2022-10-22T01:49:21.787Z,15.8571
2022-10-22T01:50:21.829Z,15.8571
2022-10-22T01:51:21.873Z,15.8571
2022-10-22T01:52:21.900Z,15.8571
2022-10-22T01:53:21.933Z,15.8571
2022-10-22T01:54:21.977Z,15.8571
2022-10-22T01:55:22.025Z,15.8571
2022-10-22T01:56:22.049Z,15.7857
2022-10-22T01:57:22.078Z,15.7857
2022-10-22T01:58:22.120Z,15.7857
2022-10-22T01:59:22.161Z,15.7857
2022-10-22T02:00:22.194Z,15.7857
2022-10-22T02:01:22.224Z,15.7143
2022-10-22T02:02:22.266Z,15.7143
2022-10-22T02:03:23.766Z,15.7143
2022-10-22T02:04:22.351Z,15.7143
2022-10-22T02:05:22.379Z,15.6429
2022-10-22T02:06:22.418Z,15.6429
2022-10-22T02:07:22.474Z,15.6429
2022-10-22T02:08:22.514Z,15.6429
2022-10-22T02:09:22.536Z,15.6429
2022-10-22T02:10:22.562Z,15.5714
2022-10-22T02:11:22.602Z,15.5714
2022-10-22T02:12:22.653Z,15.5714
2022-10-22T02:13:22.683Z,15.5714
2022-10-22T02:14:22.741Z,15.5714
2022-10-22T02:15:22.761Z,15.5714
2022-10-22T02:16:22.811Z,15.5714
2022-10-22T02:17:22.841Z,15.5714
2022-10-22T02:18:22.877Z,15.5714
2022-10-22T02:19:22.918Z,15.5714
2022-10-22T02:20:22.966Z,15.5714
2022-10-22T02:21:22.985Z,15.5714
2022-10-22T02:22:23.017Z,15.5714
2022-10-22T02:23:23.062Z,15.5
2022-10-22T02:24:23.103Z,15.5
2022-10-22T02:25:23.133Z,15.5
2022-10-22T02:26:23.158Z,15.5714
2022-10-22T02:27:26.011Z,15.5
2022-10-22T02:28:23.248Z,15.5
2022-10-22T02:29:23.284Z,15.5
2022-10-22T02:30:23.321Z,15.5
2022-10-22T02:31:23.345Z,15.5
2022-10-22T02:32:23.381Z,15.5
2022-10-22T02:33:23.410Z,15.5
2022-10-22T02:34:23.446Z,15.5
2022-10-22T02:35:23.474Z,15.5
2022-10-22T02:36:23.509Z,15.5
2022-10-22T02:37:23.545Z,15.5
2022-10-22T02:38:23.582Z,15.5
2022-10-22T02:39:23.612Z,15.5
2022-10-22T02:40:23.645Z,15.5
2022-10-22T02:41:23.671Z,15.5
2022-10-22T02:42:23.708Z,15.5
2022-10-22T02:43:23.731Z,15.5
2022-10-22T02:44:23.769Z,15.5
2022-10-22T02:45:23.802Z,15.5
2022-10-22T02:46:23.844Z,15.5
2022-10-22T02:47:23.867Z,15.5
2022-10-22T02:48:23.904Z,15.5
2022-10-22T02:49:23.936Z,15.5
2022-10-22T02:50:23.968Z,15.5
2022-10-22T02:51:23.995Z,15.5
2022-10-22T02:52:24.031Z,15.5
2022-10-22T02:53:24.069Z,15.5
2022-10-22T02:54:24.099Z,15.5
2022-10-22T02:55:24.130Z,15.5
2022-10-22T02:56:24.165Z,15.5
2022-10-22T02:57:24.203Z,15.4286
2022-10-22T02:58:24.238Z,15.4286
2022-10-22T02:59:24.263Z,15.4286
2022-10-22T03:00:24.299Z,15.4286
2022-10-22T03:01:24.425Z,15.4286
2022-10-22T03:02:24.361Z,15.4286
2022-10-22T03:03:24.391Z,15.4286
2022-10-22T03:04:24.428Z,15.4286
2022-10-22T03:05:24.460Z,15.4286
2022-10-22T03:07:24.537Z,15.4286
2022-10-22T03:08:24.562Z,15.4286
2022-10-22T03:09:24.988Z,15.4286
2022-10-22T03:10:24.642Z,15.4286
2022-10-22T03:11:24.680Z,15.4286
2022-10-22T03:12:24.726Z,15.4286
2022-10-22T03:13:24.737Z,15.4286
2022-10-22T03:14:24.780Z,15.4286
2022-10-22T03:15:24.843Z,15.4286
2022-10-22T03:16:24.861Z,15.4286
2022-10-22T03:17:24.877Z,15.4286
2022-10-22T03:18:24.909Z,15.4286
2022-10-22T03:19:24.942Z,15.5
2022-10-22T03:20:24.982Z,15.4286
2022-10-22T03:21:25.014Z,15.4286
2022-10-22T03:22:25.058Z,15.4286
2022-10-22T03:23:25.080Z,15.4286
2022-10-22T03:24:25.107Z,15.4286
2022-10-22T03:25:25.145Z,15.4286
2022-10-22T03:26:25.179Z,15.4286
2022-10-22T03:27:25.217Z,15.4286
2022-10-22T03:28:25.256Z,15.4286
2022-10-22T03:29:25.295Z,15.4286
2022-10-22T03:30:25.317Z,15.4286
2022-10-22T03:31:25.402Z,15.4286
2022-10-22T03:32:25.393Z,15.4286
2022-10-22T03:33:25.424Z,15.4286
2022-10-22T03:34:25.457Z,15.4286
2022-10-22T03:35:25.497Z,15.4286
2022-10-22T03:36:25.540Z,15.4286
2022-10-22T03:37:25.570Z,15.4286
2022-10-22T03:38:25.596Z,15.4286
2022-10-22T03:39:25.627Z,15.4286
2022-10-22T03:40:25.658Z,15.4286
2022-10-22T03:41:25.690Z,15.4286
2022-10-22T03:42:25.720Z,15.4286
2022-10-22T03:43:25.751Z,15.4286
2022-10-22T03:44:25.779Z,15.4286
2022-10-22T03:45:25.872Z,15.4286
2022-10-22T03:46:25.853Z,15.4286
2022-10-22T03:47:25.888Z,15.4286
2022-10-22T03:48:25.922Z,15.4286
2022-10-22T03:49:25.947Z,15.4286
2022-10-22T03:50:25.978Z,15.4286
2022-10-22T03:51:26.006Z,15.4286
2022-10-22T03:52:26.042Z,15.4286
2022-10-22T03:53:26.079Z,15.4286
2022-10-22T03:54:26.165Z,15.4286
2022-10-22T03:55:26.153Z,15.4286
2022-10-22T03:56:26.188Z,15.4286
2022-10-22T03:57:26.216Z,15.4286
2022-10-22T03:58:26.248Z,15.4286
2022-10-22T03:59:26.276Z,15.4286
2022-10-22T04:00:26.311Z,15.4286
2022-10-22T04:01:26.470Z,15.4286
2022-10-22T04:02:26.377Z,15.4286
2022-10-22T04:03:26.410Z,15.4286
2022-10-22T04:04:26.449Z,15.3571
2022-10-22T04:05:26.483Z,15.3571
2022-10-22T04:06:26.510Z,15.3571
2022-10-22T04:07:26.553Z,15.3571
2022-10-22T04:08:26.589Z,15.3571
2022-10-22T04:09:26.618Z,15.3571
2022-10-22T04:10:26.656Z,15.3571
2022-10-22T04:11:26.679Z,15.2857
2022-10-22T04:12:26.708Z,15.2857
2022-10-22T04:13:26.744Z,15.2857
2022-10-22T04:14:26.779Z,15.2857
2022-10-22T04:15:26.822Z,15.2857
2022-10-22T04:16:28.782Z,15.2857
2022-10-22T04:17:26.865Z,15.2857
2022-10-22T04:18:26.897Z,15.2857
2022-10-22T04:19:26.935Z,15.2143
2022-10-22T04:20:26.973Z,15.2857
2022-10-22T04:21:27.001Z,15.2857
2022-10-22T04:22:27.036Z,15.2857
2022-10-22T04:23:27.068Z,15.2857
2022-10-22T04:24:27.104Z,15.2857
2022-10-22T04:25:27.129Z,15.2857
2022-10-22T04:26:27.166Z,15.2857
2022-10-22T04:27:27.205Z,15.2857
2022-10-22T04:28:27.235Z,15.2857
2022-10-22T04:29:27.268Z,15.2857
2022-10-22T04:30:27.301Z,15.2857
2022-10-22T04:31:27.334Z,15.2857
2022-10-22T04:32:27.370Z,15.2857
2022-10-22T04:33:27.409Z,15.2857
2022-10-22T04:34:27.443Z,15.2857
2022-10-22T04:35:27.483Z,15.2143
2022-10-22T04:36:27.514Z,15.2143
2022-10-22T04:37:27.548Z,15.2143
2022-10-22T04:38:27.584Z,15.2143
2022-10-22T04:39:27.610Z,15.2143
2022-10-22T04:40:27.645Z,15.2143
2022-10-22T04:41:27.677Z,15.2143
2022-10-22T04:42:27.709Z,15.2143
2022-10-22T04:43:27.736Z,15.2143
2022-10-22T04:44:27.773Z,15.2143
2022-10-22T04:45:27.809Z,15.2143
2022-10-22T04:46:27.840Z,15.1429
2022-10-22T04:47:27.879Z,15.1429
2022-10-22T04:48:27.920Z,15.1429
2022-10-22T04:49:27.950Z,15.1429
2022-10-22T04:50:27.983Z,15.1429
2022-10-22T04:51:28.015Z,15.1429
2022-10-22T04:52:28.044Z,15.1429
2022-10-22T04:53:28.075Z,15.1429
2022-10-22T04:54:32.127Z,15.1429
2022-10-22T04:55:28.196Z,15.1429
2022-10-22T04:56:28.172Z,15.1429
2022-10-22T04:57:28.204Z,15.1429
2022-10-22T04:58:28.238Z,15.1429
2022-10-22T04:59:28.260Z,15.0714
2022-10-22T05:00:28.285Z,15.0714
2022-10-22T05:01:28.410Z,15.0714
2022-10-22T05:02:28.360Z,15.0714
2022-10-22T05:03:28.382Z,15.0714
2022-10-22T05:04:28.411Z,15.0714
2022-10-22T05:05:28.459Z,15.0714
2022-10-22T05:06:28.490Z,15
2022-10-22T05:07:28.520Z,15
2022-10-22T05:08:28.557Z,15
2022-10-22T05:09:28.584Z,15
2022-10-22T05:10:28.621Z,15
2022-10-22T05:11:28.643Z,15
2022-10-22T05:12:28.676Z,15
2022-10-22T05:13:28.712Z,15
2022-10-22T05:14:28.751Z,15
2022-10-22T05:15:28.785Z,15
2022-10-22T05:16:28.816Z,15
2022-10-22T05:17:28.841Z,15
2022-10-22T05:18:28.871Z,14.9286
2022-10-22T05:19:28.900Z,14.9286
2022-10-22T05:20:28.936Z,14.9286
2022-10-22T05:21:28.986Z,14.9286
2022-10-22T05:22:28.991Z,14.9286
2022-10-22T05:23:29.023Z,14.9286
2022-10-22T05:24:29.056Z,14.9286
2022-10-22T05:25:29.085Z,14.9286
2022-10-22T05:26:29.128Z,14.9286
2022-10-22T05:27:29.154Z,14.8571
2022-10-22T05:28:29.179Z,14.8571
2022-10-22T05:29:29.212Z,14.8571
2022-10-22T05:30:29.252Z,14.8571
2022-10-22T05:31:29.287Z,14.8571
2022-10-22T05:32:29.314Z,14.8571
2022-10-22T05:33:29.353Z,14.8571
2022-10-22T05:34:29.380Z,14.8571
2022-10-22T05:35:29.409Z,14.8571
2022-10-22T05:36:29.446Z,14.8571
2022-10-22T05:37:29.474Z,14.8571
2022-10-22T05:38:29.501Z,14.8571
2022-10-22T05:39:29.531Z,14.8571
2022-10-22T05:40:31.055Z,14.8571
2022-10-22T05:41:29.592Z,14.8571
2022-10-22T05:42:29.617Z,14.8571
2022-10-22T05:43:29.649Z,14.8571
2022-10-22T05:44:29.683Z,14.8571
2022-10-22T05:45:29.713Z,14.7857
2022-10-22T05:46:29.747Z,14.7857
2022-10-22T05:47:29.787Z,14.7857
2022-10-22T05:48:29.928Z,14.7857
2022-10-22T05:49:29.846Z,14.7857
2022-10-22T05:50:29.868Z,14.7857
2022-10-22T05:51:29.899Z,14.7857
2022-10-22T05:52:29.927Z,14.7857
2022-10-22T05:53:29.959Z,14.7857
2022-10-22T05:54:29.985Z,14.7857
2022-10-22T05:55:30.021Z,14.7857
2022-10-22T05:56:30.057Z,14.7857
2022-10-22T05:57:30.085Z,14.7857
2022-10-22T05:58:30.121Z,14.7143
2022-10-22T05:59:30.159Z,14.7143
2022-10-22T06:00:30.195Z,14.7143
2022-10-22T06:01:30.252Z,14.7857
2022-10-22T06:02:30.368Z,14.7857
2022-10-22T06:03:30.283Z,14.7143
2022-10-22T06:04:30.315Z,14.7143
2022-10-22T06:05:30.347Z,14.7143
2022-10-22T06:06:30.392Z,14.7143
2022-10-22T06:07:30.408Z,14.7143
2022-10-22T06:08:30.541Z,14.7143
2022-10-22T06:09:30.530Z,14.7143
2022-10-22T06:10:30.499Z,14.7143
2022-10-22T06:11:34.155Z,14.6429
2022-10-22T06:12:30.556Z,14.6429
2022-10-22T06:13:30.587Z,14.6429
2022-10-22T06:14:30.623Z,14.6429
2022-10-22T06:15:30.657Z,14.6429
2022-10-22T06:16:30.699Z,14.6429
2022-10-22T06:17:30.729Z,14.6429
2022-10-22T06:18:30.771Z,14.6429
2022-10-22T06:19:30.800Z,14.7143
2022-10-22T06:20:30.831Z,14.7143
2022-10-22T06:21:30.862Z,14.7143
2022-10-22T06:22:30.902Z,14.7143
2022-10-22T06:23:30.936Z,14.7143
2022-10-22T06:24:30.967Z,14.7857
2022-10-22T06:25:31.002Z,14.7857
2022-10-22T06:26:31.035Z,14.7857
2022-10-22T06:27:31.071Z,14.7857
2022-10-22T06:28:31.099Z,14.8571
2022-10-22T06:29:31.139Z,14.8571
2022-10-22T06:30:31.170Z,14.8571
2022-10-22T06:31:31.205Z,14.8571
2022-10-22T06:32:31.233Z,14.8571
2022-10-22T06:33:31.262Z,14.8571
2022-10-22T06:34:31.297Z,14.9286
2022-10-22T06:35:31.325Z,14.8571
2022-10-22T06:36:31.434Z,14.9286
2022-10-22T06:37:31.392Z,14.9286
2022-10-22T06:38:31.422Z,14.9286
2022-10-22T06:39:31.446Z,14.9286
2022-10-22T06:40:31.480Z,15
2022-10-22T06:41:31.514Z,15
2022-10-22T06:42:31.540Z,15
2022-10-22T06:43:31.572Z,15
2022-10-22T06:44:31.589Z,15
2022-10-22T06:45:31.621Z,15
2022-10-22T06:46:31.648Z,15.0714
2022-10-22T06:47:31.669Z,15.0714
2022-10-22T06:48:31.700Z,15.0714
2022-10-22T06:49:31.730Z,15.0714
2022-10-22T06:50:31.764Z,15.0714
2022-10-22T06:51:31.787Z,15.1429
2022-10-22T06:52:31.820Z,15.1429
2022-10-22T06:53:31.850Z,15.1429
2022-10-22T06:54:31.883Z,15.1429
2022-10-22T06:55:31.912Z,15.2143
2022-10-22T06:56:31.944Z,15.2143
2022-10-22T06:57:31.972Z,15.2143
2022-10-22T06:58:32.008Z,15.2857
2022-10-22T06:59:32.043Z,15.2857
2022-10-22T07:01:32.177Z,15.3571
2022-10-22T07:02:32.143Z,15.3571
2022-10-22T07:03:32.172Z,15.3571
2022-10-22T07:04:32.206Z,15.3571
2022-10-22T07:05:32.243Z,15.4286
2022-10-22T07:06:32.273Z,15.4286
2022-10-22T07:07:32.313Z,15.4286
2022-10-22T07:08:32.379Z,15.5
2022-10-22T07:09:32.369Z,15.5
2022-10-22T07:10:32.485Z,15.5
2022-10-22T07:11:32.432Z,15.5
2022-10-22T07:12:32.466Z,15.5714
2022-10-22T07:13:32.506Z,15.5714
2022-10-22T07:14:32.526Z,15.5714
2022-10-22T07:15:32.565Z,15.6429
2022-10-22T07:16:32.782Z,15.6429
2022-10-22T07:17:32.673Z,15.6429
2022-10-22T07:18:32.663Z,15.7143
2022-10-22T07:19:32.698Z,15.7143
2022-10-22T07:20:32.718Z,15.7143
2022-10-22T07:21:32.747Z,15.7857
2022-10-22T07:22:32.780Z,15.7857
2022-10-22T07:23:32.808Z,15.8571
2022-10-22T07:24:32.843Z,15.8571
2022-10-22T07:25:32.871Z,15.8571
2022-10-22T07:26:32.896Z,15.9286
2022-10-22T07:27:32.924Z,15.9286
2022-10-22T07:28:32.957Z,15.9286
2022-10-22T07:29:32.988Z,16
2022-10-22T07:30:33.026Z,16
2022-10-22T07:31:33.056Z,16
2022-10-22T07:32:33.092Z,16.0714
2022-10-22T07:33:33.133Z,16.0714
2022-10-22T07:34:33.179Z,16.0714
2022-10-22T07:35:33.206Z,16.1429
2022-10-22T07:36:33.236Z,16.1429
2022-10-22T07:37:33.268Z,16.1429
2022-10-22T07:38:33.297Z,16.2143
2022-10-22T07:39:33.330Z,16.2143
2022-10-22T07:40:33.368Z,16.2857
2022-10-22T07:41:33.397Z,16.2857
2022-10-22T07:42:33.489Z,16.3571
2022-10-22T07:43:33.480Z,16.3571
2022-10-22T07:44:33.507Z,16.3571
2022-10-22T07:45:33.540Z,16.4286
2022-10-22T07:46:33.569Z,16.4286
2022-10-22T07:47:33.602Z,16.4286
2022-10-22T07:48:33.634Z,16.5
2022-10-22T07:49:33.669Z,16.5
2022-10-22T07:50:33.751Z,16.5
2022-10-22T07:51:33.732Z,16.5
2022-10-22T07:52:33.757Z,16.5714
2022-10-22T07:53:33.787Z,16.5714
2022-10-22T07:54:33.815Z,16.5714
2022-10-22T07:55:33.846Z,16.5714
2022-10-22T07:56:33.882Z,16.5714
2022-10-22T07:57:33.912Z,16.5714
2022-10-22T07:58:33.949Z,16.5714
2022-10-22T07:59:33.979Z,16.5714
2022-10-22T08:00:34.007Z,16.6429
2022-10-22T08:01:34.067Z,16.6429
2022-10-22T08:02:34.072Z,16.6429
2022-10-22T08:03:34.112Z,16.6429
2022-10-22T08:04:34.143Z,16.6429
2022-10-22T08:05:34.169Z,16.6429
2022-10-22T08:06:34.203Z,16.6429
2022-10-22T08:07:34.233Z,16.7143
2022-10-22T08:08:34.299Z,16.7143
2022-10-22T08:09:34.289Z,16.7143
2022-10-22T08:10:34.325Z,16.7143
2022-10-22T08:11:34.358Z,16.7143
2022-10-22T08:12:34.389Z,16.7143
2022-10-22T08:13:34.411Z,16.7143
2022-10-22T08:14:34.444Z,16.7143
2022-10-22T08:15:34.562Z,16.7857
2022-10-22T08:16:34.509Z,16.7857
2022-10-22T08:17:34.548Z,16.7857
2022-10-22T08:18:34.569Z,16.7857
2022-10-22T08:19:34.598Z,16.8571
2022-10-22T08:20:34.628Z,16.8571
2022-10-22T08:21:34.659Z,16.8571
2022-10-22T08:22:34.690Z,16.8571
2022-10-22T08:23:34.717Z,16.9286
2022-10-22T08:24:34.749Z,16.9286
2022-10-22T08:25:34.789Z,16.9286
2022-10-22T08:26:34.816Z,16.9286
2022-10-22T08:27:34.846Z,16.9286
2022-10-22T08:28:34.866Z,16.9286
2022-10-22T08:29:34.891Z,16.9286
2022-10-22T08:30:34.919Z,16.9286
2022-10-22T08:31:34.950Z,17
2022-10-22T08:32:34.994Z,17
2022-10-22T08:33:35.026Z,17
2022-10-22T08:34:35.045Z,17
2022-10-22T08:35:35.078Z,17
2022-10-22T08:36:35.108Z,17
2022-10-22T08:37:35.134Z,17.0714
2022-10-22T08:38:35.169Z,17.0714
2022-10-22T08:39:35.201Z,17.0714
2022-10-22T08:40:35.306Z,17.1429
2022-10-22T08:41:35.265Z,17.1429
2022-10-22T08:42:35.301Z,17.2143
2022-10-22T08:43:35.336Z,17.2857
2022-10-22T08:44:35.360Z,17.3571
2022-10-22T08:45:35.390Z,17.3571
2022-10-22T08:46:35.418Z,17.5
2022-10-22T08:47:35.452Z,17.5714
2022-10-22T08:48:35.491Z,17.7143
2022-10-22T08:49:38.382Z,17.7857
2022-10-22T08:50:35.567Z,17.9286
2022-10-22T08:51:35.592Z,18
2022-10-22T08:52:35.624Z,18.0714
2022-10-22T08:53:35.656Z,18.1429
2022-10-22T08:54:35.681Z,18.2143
2022-10-22T08:55:37.424Z,18.2857
2022-10-22T08:56:35.752Z,18.3571
2022-10-22T08:57:35.792Z,18.4286
2022-10-22T08:58:35.813Z,18.5
2022-10-22T08:59:35.842Z,18.5714
2022-10-22T09:00:35.872Z,18.6429
2022-10-22T09:01:35.905Z,18.7143
2022-10-22T09:02:35.931Z,18.7857
2022-10-22T09:03:35.961Z,18.8571
2022-10-22T09:04:35.990Z,18.8571
2022-10-22T09:05:36.027Z,18.8571
2022-10-22T09:06:36.054Z,18.8571
2022-10-22T09:07:36.084Z,18.9286
2022-10-22T09:08:36.135Z,19
2022-10-22T09:09:36.143Z,19.0714
2022-10-22T09:10:36.180Z,19.0714
2022-10-22T09:11:36.209Z,19.1429
2022-10-22T09:12:36.246Z,19.1429
2022-10-22T09:13:36.278Z,19.2143
2022-10-22T09:14:36.302Z,19.2143
2022-10-22T09:15:36.338Z,19.2143
2022-10-22T09:16:36.373Z,19.2857
2022-10-22T09:17:36.416Z,19.2857
2022-10-22T09:18:36.444Z,19.3571
2022-10-22T09:19:36.469Z,19.3571
2022-10-22T09:20:36.503Z,19.4286
2022-10-22T09:21:36.536Z,19.5
2022-10-22T09:22:36.592Z,19.5
2022-10-22T09:23:36.620Z,19.5714
2022-10-22T09:24:36.640Z,19.5714
2022-10-22T09:25:36.670Z,19.6429
2022-10-22T09:26:36.704Z,19.6429
2022-10-22T09:27:36.752Z,19.7143
2022-10-22T09:28:36.796Z,19.7143
2022-10-22T09:29:36.829Z,19.7143
2022-10-22T09:30:36.852Z,19.7857
2022-10-22T09:31:36.885Z,19.8571
2022-10-22T09:32:36.926Z,19.9286
2022-10-22T09:33:36.977Z,19.9286
2022-10-22T09:34:36.998Z,19.9286
2022-10-22T09:35:37.038Z,20
2022-10-22T09:36:37.070Z,20
2022-10-22T09:37:37.123Z,20
2022-10-22T09:38:37.165Z,20.0714
2022-10-22T09:39:37.192Z,20.0714
2022-10-22T09:40:37.223Z,20.0714
2022-10-22T09:41:37.255Z,20.0714
2022-10-22T09:42:37.286Z,20.0714
2022-10-22T09:43:37.320Z,20.0714
2022-10-22T09:44:37.349Z,20.1429
2022-10-22T09:45:37.379Z,20.1429
2022-10-22T09:46:37.408Z,20.1429
2022-10-22T09:47:43.446Z,20.1429
2022-10-22T09:48:37.477Z,20.1429
2022-10-22T09:49:37.498Z,20.1429
2022-10-22T09:50:37.522Z,20.1429
2022-10-22T09:51:37.558Z,20.1429
2022-10-22T09:52:37.581Z,20.1429
2022-10-22T09:53:37.612Z,20.1429
2022-10-22T09:54:37.642Z,20.2143
2022-10-22T09:55:37.673Z,20.2143
2022-10-22T09:56:37.707Z,20.2143
2022-10-22T09:57:39.834Z,20.2143
2022-10-22T09:58:37.763Z,20.2143
2022-10-22T09:59:37.802Z,20.2143
2022-10-22T10:00:37.927Z,20.2143
2022-10-22T10:01:37.870Z,20.2857
2022-10-22T10:02:38.261Z,20.2857
2022-10-22T10:03:37.935Z,20.2857
2022-10-22T10:04:37.976Z,20.2857
2022-10-22T10:05:38.000Z,20.2857
2022-10-22T10:06:38.023Z,20.2857
2022-10-22T10:07:38.078Z,20.3571
2022-10-22T10:08:38.159Z,20.3571
2022-10-22T10:09:38.130Z,20.3571
2022-10-22T10:10:38.173Z,20.3571
2022-10-22T10:11:38.225Z,20.4286
2022-10-22T10:12:38.346Z,20.4286
2022-10-22T10:13:38.282Z,20.4286
2022-10-22T10:14:38.307Z,20.4286
2022-10-22T10:15:38.351Z,20.5
2022-10-22T10:16:38.394Z,20.5
2022-10-22T10:17:38.433Z,20.5
2022-10-22T10:18:38.464Z,20.5
2022-10-22T10:19:38.500Z,20.5
2022-10-22T10:20:38.534Z,20.5
2022-10-22T10:21:38.576Z,20.5
2022-10-22T10:22:38.881Z,20.5714
2022-10-22T10:23:38.650Z,20.5714
2022-10-22T10:24:38.678Z,20.5714
2022-10-22T10:25:38.706Z,20.5714
2022-10-22T10:26:38.742Z,20.5
2022-10-22T10:27:38.784Z,20.5
2022-10-22T10:28:38.822Z,20.5
2022-10-22T10:29:38.873Z,20.5
2022-10-22T10:30:38.879Z,20.5
2022-10-22T10:31:38.919Z,20.5
2022-10-22T10:32:39.266Z,20.5
2022-10-22T10:33:39.010Z,20.5
2022-10-22T10:34:39.044Z,20.4286
2022-10-22T10:35:39.064Z,20.4286
2022-10-22T10:36:39.103Z,20.4286
2022-10-22T10:37:39.146Z,20.4286
2022-10-22T10:38:39.208Z,20.4286
2022-10-22T10:39:39.236Z,20.4286
2022-10-22T10:40:39.259Z,20.4286
2022-10-22T10:41:39.291Z,20.3571
2022-10-22T10:42:39.729Z,20.2857
2022-10-22T10:43:39.378Z,20.2143
2022-10-22T10:44:39.405Z,20.1429
2022-10-22T10:45:39.439Z,20.0714
2022-10-22T10:46:39.466Z,20
2022-10-22T10:47:39.900Z,20
2022-10-22T10:48:39.534Z,20
2022-10-22T10:49:39.574Z,19.9286
2022-10-22T10:50:39.620Z,19.9286
2022-10-22T10:51:39.643Z,19.8571
2022-10-22T10:52:39.670Z,19.8571
2022-10-22T10:53:39.714Z,19.8571
2022-10-22T10:54:39.821Z,19.7857
2022-10-22T10:55:39.796Z,19.7143
2022-10-22T10:56:39.834Z,19.7143
2022-10-22T10:57:40.079Z,19.6429
2022-10-22T10:58:39.889Z,19.6429
2022-10-22T10:59:39.926Z,19.5714
2022-10-22T11:00:39.968Z,19.5714
2022-10-22T11:01:40.053Z,19.5
2022-10-22T11:02:40.042Z,19.5
2022-10-22T11:03:40.074Z,19.4286
2022-10-22T11:04:40.103Z,19.4286
2022-10-22T11:05:40.143Z,19.3571
2022-10-22T11:06:40.185Z,19.3571
2022-10-22T11:07:40.213Z,19.2857
2022-10-22T11:08:40.303Z,19.2857
2022-10-22T11:09:40.280Z,19.2143
2022-10-22T11:10:40.322Z,19.2143
2022-10-22T11:11:40.367Z,19.2143
2022-10-22T11:12:40.788Z,19.2143
2022-10-22T11:13:40.439Z,19.2143
2022-10-22T11:14:40.471Z,19.1429
2022-10-22T11:15:40.525Z,19.1429
2022-10-22T11:16:40.555Z,19.2143
2022-10-22T11:17:40.601Z,19.2143
2022-10-22T11:18:40.636Z,19.1429
2022-10-22T11:19:50.895Z,19.1429
2022-10-22T11:20:40.696Z,19.1429
2022-10-22T11:21:40.735Z,19.1429
2022-10-22T11:22:50.429Z,19.1429
2022-10-22T11:23:40.826Z,19.1429
2022-10-22T11:24:40.850Z,19.1429
2022-10-22T11:25:40.878Z,19.1429
2022-10-22T11:26:40.919Z,19.1429
2022-10-22T11:27:41.202Z,19.0714
2022-10-22T11:28:41.000Z,19.0714
2022-10-22T11:29:41.025Z,19.0714
2022-10-22T11:30:41.056Z,19.0714
2022-10-22T11:31:41.093Z,19.0714
2022-10-22T11:32:41.424Z,19.0714
2022-10-22T11:33:41.185Z,19.0714
2022-10-22T11:34:41.219Z,19.0714
2022-10-22T11:35:41.240Z,19.0714
2022-10-22T11:36:41.312Z,19.0714
2022-10-22T11:37:41.542Z,19.0714
2022-10-22T11:38:41.363Z,19.0714
2022-10-22T11:39:41.404Z,19.0714
2022-10-22T11:40:41.427Z,19.1429
2022-10-22T11:41:41.485Z,19.1429
2022-10-22T11:42:41.495Z,19.1429
2022-10-22T11:43:41.536Z,19.1429
2022-10-22T11:44:41.647Z,19.1429
2022-10-22T11:45:41.617Z,19.1429
2022-10-22T11:46:41.638Z,19.1429
2022-10-22T11:47:41.901Z,19.1429
2022-10-22T11:48:41.722Z,19.1429
2022-10-22T11:49:41.778Z,19.1429
2022-10-22T11:50:41.796Z,19.1429
2022-10-22T11:51:41.822Z,19.1429
2022-10-22T11:52:41.861Z,19.1429
2022-10-22T11:53:41.888Z,19.1429
2022-10-22T11:54:41.941Z,19.1429
2022-10-22T11:55:41.981Z,19.1429
2022-10-22T11:56:42.001Z,19.1429
2022-10-22T11:57:42.416Z,19.1429
2022-10-22T11:58:42.073Z,19.1429
2022-10-22T11:59:42.123Z,19.1429
2022-10-22T12:00:42.170Z,19.2143
2022-10-22T12:01:42.188Z,19.2143
2022-10-22T12:02:42.462Z,19.2143
2022-10-22T12:03:42.257Z,19.2143
2022-10-22T12:04:42.341Z,19.2143
2022-10-22T12:05:42.344Z,19.2143
2022-10-22T12:06:42.367Z,19.2143
2022-10-22T12:07:42.395Z,19.2143
2022-10-22T12:08:42.448Z,19.2143
2022-10-22T12:09:42.542Z,19.2143
2022-10-22T12:10:42.510Z,19.2143
2022-10-22T12:11:42.548Z,19.2857
2022-10-22T12:12:42.770Z,19.2857
2022-10-22T12:13:42.613Z,19.2857
2022-10-22T12:14:42.648Z,19.2857
2022-10-22T12:15:42.688Z,19.2857
2022-10-22T12:16:56.230Z,19.2857
2022-10-22T12:17:42.755Z,19.2857
2022-10-22T12:18:42.781Z,19.2857
2022-10-22T12:19:42.818Z,19.3571
2022-10-22T12:20:42.864Z,19.3571
2022-10-22T12:21:42.906Z,19.3571